Joussard, Canada
Current Conditions -  °F | °C
As of 3:33 AM on Thursday 29 Jan 2015 (Local Time) from CYZH Reporting Station
Light Snow Light Snow  
Wind Chill: -5°   Ceiling: 500
Heat Index:   Visibility: 2.5mi
Dew Point:   Wind: 9mph
Humidity: 92%   Direction: 100°E
Pressure: 30.35"   Gusts: NA
Location:  55.37°N, 115.93°W
Report Text: CYZH 291033Z AUTO 10008KT 2 1/2SM -SN OVC005 M13/M14 A3035 RMK ICG INTMT SLP327
Loading
Personal Weather Stations






























Interactive Weather Map New forecast layout! Learn more

10-Day Weather Forecast

Advertisements
Track Severe Weather on mobile